Terminal Aerodrome Forecast
Issued by NWS New Orleans/Baton Rouge, LA

Home | Current Version | Previous Version | Text Only | Print | Product List | Glossary On
Versions: 1 2 3 4 5 6 7 8 9 10 11 12 13
000
FTUS44 KLIX 061730
TAFBTR
TAF
KBTR 061730Z 0618/0718 17009KT P6SM FEW030
     FM062100 20007KT P6SM VCTS SCT025CB
     FM070200 17005KT P6SM SCT030
      TEMPO 0710/0712 5SM BR BKN005=

USA.gov is the U.S. government's official web portal to all federal, state and local government web resources and services.